sensor_id;sensor_type;location;lat;lon;timestamp;temperature;humidity
47338;DHT22;33069;51.970;5.892;2022-07-29T00:01:24;17.00;64.70
47338;DHT22;33069;51.970;5.892;2022-07-29T00:03:50;17.00;64.80
47338;DHT22;33069;51.970;5.892;2022-07-29T00:06:16;17.10;64.60
47338;DHT22;33069;51.970;5.892;2022-07-29T00:08:42;16.90;64.70
47338;DHT22;33069;51.970;5.892;2022-07-29T00:11:08;16.90;64.50
47338;DHT22;33069;51.970;5.892;2022-07-29T00:13:34;16.80;65.30
47338;DHT22;33069;51.970;5.892;2022-07-29T00:15:59;16.80;65.20
47338;DHT22;33069;51.970;5.892;2022-07-29T00:18:25;16.80;65.20
47338;DHT22;33069;51.970;5.892;2022-07-29T00:20:52;16.90;64.80
47338;DHT22;33069;51.970;5.892;2022-07-29T00:23:17;16.80;65.10
47338;DHT22;33069;51.970;5.892;2022-07-29T00:25:44;16.60;65.50
47338;DHT22;33069;51.970;5.892;2022-07-29T00:28:09;16.70;65.70
47338;DHT22;33069;51.970;5.892;2022-07-29T00:30:35;16.70;65.50
47338;DHT22;33069;51.970;5.892;2022-07-29T00:33:01;16.60;65.90
47338;DHT22;33069;51.970;5.892;2022-07-29T00:35:26;16.60;65.60
47338;DHT22;33069;51.970;5.892;2022-07-29T00:38:12;16.50;65.80
47338;DHT22;33069;51.970;5.892;2022-07-29T00:40:39;16.60;65.60
47338;DHT22;33069;51.970;5.892;2022-07-29T00:43:05;16.60;65.90
47338;DHT22;33069;51.970;5.892;2022-07-29T00:45:31;16.50;65.60
47338;DHT22;33069;51.970;5.892;2022-07-29T00:47:56;16.70;65.50
47338;DHT22;33069;51.970;5.892;2022-07-29T00:50:23;16.80;64.80
47338;DHT22;33069;51.970;5.892;2022-07-29T00:52:49;16.80;65.20
47338;DHT22;33069;51.970;5.892;2022-07-29T00:55:17;16.70;65.20
47338;DHT22;33069;51.970;5.892;2022-07-29T00:57:44;16.70;65.60
47338;DHT22;33069;51.970;5.892;2022-07-29T01:00:13;16.50;65.40
47338;DHT22;33069;51.970;5.892;2022-07-29T01:02:39;16.50;65.80
47338;DHT22;33069;51.970;5.892;2022-07-29T01:05:06;16.50;66.20
47338;DHT22;33069;51.970;5.892;2022-07-29T01:07:34;16.50;65.70
47338;DHT22;33069;51.970;5.892;2022-07-29T01:10:05;16.60;65.40
47338;DHT22;33069;51.970;5.892;2022-07-29T01:12:32;16.60;65.70
47338;DHT22;33069;51.970;5.892;2022-07-29T01:14:59;16.50;66.10
47338;DHT22;33069;51.970;5.892;2022-07-29T01:17:26;16.50;66.30
47338;DHT22;33069;51.970;5.892;2022-07-29T01:20:06;16.40;66.60
47338;DHT22;33069;51.970;5.892;2022-07-29T01:29:00;16.60;66.10
47338;DHT22;33069;51.970;5.892;2022-07-29T01:34:48;16.50;66.00
47338;DHT22;33069;51.970;5.892;2022-07-29T01:37:24;16.70;65.70
47338;DHT22;33069;51.970;5.892;2022-07-29T01:39:53;16.80;65.50
47338;DHT22;33069;51.970;5.892;2022-07-29T01:42:25;16.60;65.70
47338;DHT22;33069;51.970;5.892;2022-07-29T01:45:17;16.60;64.70
47338;DHT22;33069;51.970;5.892;2022-07-29T01:47:54;16.60;65.20
47338;DHT22;33069;51.970;5.892;2022-07-29T01:50:28;16.50;65.70
47338;DHT22;33069;51.970;5.892;2022-07-29T01:52:59;16.40;66.60
47338;DHT22;33069;51.970;5.892;2022-07-29T01:55:32;16.60;66.40
47338;DHT22;33069;51.970;5.892;2022-07-29T01:58:01;16.50;66.10
47338;DHT22;33069;51.970;5.892;2022-07-29T02:00:28;16.60;66.00
47338;DHT22;33069;51.970;5.892;2022-07-29T02:02:56;16.60;65.90
47338;DHT22;33069;51.970;5.892;2022-07-29T02:05:22;16.50;66.20
47338;DHT22;33069;51.970;5.892;2022-07-29T02:07:51;16.60;66.20
47338;DHT22;33069;51.970;5.892;2022-07-29T02:10:22;16.70;65.60
47338;DHT22;33069;51.970;5.892;2022-07-29T02:12:50;16.60;66.30
47338;DHT22;33069;51.970;5.892;2022-07-29T02:15:18;16.90;66.10
47338;DHT22;33069;51.970;5.892;2022-07-29T02:17:49;16.80;67.10
47338;DHT22;33069;51.970;5.892;2022-07-29T02:20:17;16.60;67.80
47338;DHT22;33069;51.970;5.892;2022-07-29T02:22:43;16.50;66.40
47338;DHT22;33069;51.970;5.892;2022-07-29T02:25:10;16.40;68.10
47338;DHT22;33069;51.970;5.892;2022-07-29T02:27:37;16.40;68.80
47338;DHT22;33069;51.970;5.892;2022-07-29T02:30:05;16.30;68.90
47338;DHT22;33069;51.970;5.892;2022-07-29T02:32:32;16.30;69.90
47338;DHT22;33069;51.970;5.892;2022-07-29T02:35:01;16.20;71.10
47338;DHT22;33069;51.970;5.892;2022-07-29T02:37:27;16.10;70.70
47338;DHT22;33069;51.970;5.892;2022-07-29T02:39:55;16.20;70.50
47338;DHT22;33069;51.970;5.892;2022-07-29T02:42:24;16.00;71.30
47338;DHT22;33069;51.970;5.892;2022-07-29T02:44:52;15.80;70.60
47338;DHT22;33069;51.970;5.892;2022-07-29T02:47:36;16.00;72.30
47338;DHT22;33069;51.970;5.892;2022-07-29T02:55:25;15.80;73.30
47338;DHT22;33069;51.970;5.892;2022-07-29T02:58:01;15.70;73.30
47338;DHT22;33069;51.970;5.892;2022-07-29T03:00:29;15.80;74.00
47338;DHT22;33069;51.970;5.892;2022-07-29T03:02:59;15.80;74.50
47338;DHT22;33069;51.970;5.892;2022-07-29T03:05:26;15.60;74.10
47338;DHT22;33069;51.970;5.892;2022-07-29T03:08:05;15.50;74.10
47338;DHT22;33069;51.970;5.892;2022-07-29T03:10:31;15.60;73.00
47338;DHT22;33069;51.970;5.892;2022-07-29T03:12:58;15.30;72.30
47338;DHT22;33069;51.970;5.892;2022-07-29T03:15:24;15.20;72.50
47338;DHT22;33069;51.970;5.892;2022-07-29T03:17:51;15.10;73.50
47338;DHT22;33069;51.970;5.892;2022-07-29T03:20:17;15.20;73.60
47338;DHT22;33069;51.970;5.892;2022-07-29T03:22:45;15.10;74.00
47338;DHT22;33069;51.970;5.892;2022-07-29T03:25:15;15.10;74.10
47338;DHT22;33069;51.970;5.892;2022-07-29T03:27:42;15.20;74.30
47338;DHT22;33069;51.970;5.892;2022-07-29T03:30:09;15.00;74.60
47338;DHT22;33069;51.970;5.892;2022-07-29T03:32:35;15.00;75.00
47338;DHT22;33069;51.970;5.892;2022-07-29T03:35:01;14.80;75.60
47338;DHT22;33069;51.970;5.892;2022-07-29T03:37:27;14.70;77.20
47338;DHT22;33069;51.970;5.892;2022-07-29T03:39:56;14.50;77.60
47338;DHT22;33069;51.970;5.892;2022-07-29T03:42:24;14.60;77.40
47338;DHT22;33069;51.970;5.892;2022-07-29T03:44:51;14.70;77.80
47338;DHT22;33069;51.970;5.892;2022-07-29T03:47:22;14.80;78.10
47338;DHT22;33069;51.970;5.892;2022-07-29T03:49:50;14.80;77.90
47338;DHT22;33069;51.970;5.892;2022-07-29T03:52:17;14.50;78.50
47338;DHT22;33069;51.970;5.892;2022-07-29T03:54:43;14.30;78.90
47338;DHT22;33069;51.970;5.892;2022-07-29T03:57:11;14.30;79.20
47338;DHT22;33069;51.970;5.892;2022-07-29T03:59:38;14.20;79.70
47338;DHT22;33069;51.970;5.892;2022-07-29T04:02:08;14.20;79.70
47338;DHT22;33069;51.970;5.892;2022-07-29T04:04:34;14.20;80.20
47338;DHT22;33069;51.970;5.892;2022-07-29T04:07:00;14.10;80.50
47338;DHT22;33069;51.970;5.892;2022-07-29T04:09:26;14.10;80.70
47338;DHT22;33069;51.970;5.892;2022-07-29T04:11:52;14.10;80.80
47338;DHT22;33069;51.970;5.892;2022-07-29T04:14:19;14.00;81.00
47338;DHT22;33069;51.970;5.892;2022-07-29T04:16:46;14.10;80.80
47338;DHT22;33069;51.970;5.892;2022-07-29T04:19:11;14.00;80.90
47338;DHT22;33069;51.970;5.892;2022-07-29T04:21:40;14.10;80.90
47338;DHT22;33069;51.970;5.892;2022-07-29T04:24:07;14.10;80.90
47338;DHT22;33069;51.970;5.892;2022-07-29T04:26:33;14.10;80.60
47338;DHT22;33069;51.970;5.892;2022-07-29T04:28:59;14.30;80.30
47338;DHT22;33069;51.970;5.892;2022-07-29T04:31:24;14.50;80.40
47338;DHT22;33069;51.970;5.892;2022-07-29T04:33:50;14.40;79.90
47338;DHT22;33069;51.970;5.892;2022-07-29T04:36:16;14.30;80.20
47338;DHT22;33069;51.970;5.892;2022-07-29T04:38:42;14.10;80.60
47338;DHT22;33069;51.970;5.892;2022-07-29T04:41:08;14.10;80.50
47338;DHT22;33069;51.970;5.892;2022-07-29T04:43:35;14.20;81.00
47338;DHT22;33069;51.970;5.892;2022-07-29T04:46:02;14.00;80.70
47338;DHT22;33069;51.970;5.892;2022-07-29T04:48:28;13.90;80.80
47338;DHT22;33069;51.970;5.892;2022-07-29T04:50:54;14.10;81.10
47338;DHT22;33069;51.970;5.892;2022-07-29T04:53:20;14.30;80.70
47338;DHT22;33069;51.970;5.892;2022-07-29T04:55:45;14.30;79.50
47338;DHT22;33069;51.970;5.892;2022-07-29T04:58:11;14.30;79.40
47338;DHT22;33069;51.970;5.892;2022-07-29T05:00:37;14.20;80.30
47338;DHT22;33069;51.970;5.892;2022-07-29T05:03:03;14.00;79.80
47338;DHT22;33069;51.970;5.892;2022-07-29T05:05:29;14.10;79.90
47338;DHT22;33069;51.970;5.892;2022-07-29T05:07:55;14.20;80.00
47338;DHT22;33069;51.970;5.892;2022-07-29T05:10:22;14.20;80.20
47338;DHT22;33069;51.970;5.892;2022-07-29T05:12:47;14.20;79.70
47338;DHT22;33069;51.970;5.892;2022-07-29T05:15:13;14.20;79.30
47338;DHT22;33069;51.970;5.892;2022-07-29T05:17:39;14.20;79.10
47338;DHT22;33069;51.970;5.892;2022-07-29T05:20:05;14.10;79.40
47338;DHT22;33069;51.970;5.892;2022-07-29T05:22:31;14.20;79.10
47338;DHT22;33069;51.970;5.892;2022-07-29T05:24:57;14.20;78.90
47338;DHT22;33069;51.970;5.892;2022-07-29T05:27:23;14.30;78.80
47338;DHT22;33069;51.970;5.892;2022-07-29T05:29:49;14.50;78.60
47338;DHT22;33069;51.970;5.892;2022-07-29T05:32:14;14.70;78.70
47338;DHT22;33069;51.970;5.892;2022-07-29T05:34:41;14.80;78.70
47338;DHT22;33069;51.970;5.892;2022-07-29T05:37:06;15.10;77.70
47338;DHT22;33069;51.970;5.892;2022-07-29T05:39:32;15.30;76.50
47338;DHT22;33069;51.970;5.892;2022-07-29T05:41:58;15.30;75.90
47338;DHT22;33069;51.970;5.892;2022-07-29T05:44:24;15.30;75.40
47338;DHT22;33069;51.970;5.892;2022-07-29T05:46:49;15.50;74.70
47338;DHT22;33069;51.970;5.892;2022-07-29T05:49:16;15.40;74.80
47338;DHT22;33069;51.970;5.892;2022-07-29T05:51:41;15.30;75.40
47338;DHT22;33069;51.970;5.892;2022-07-29T05:54:07;15.50;75.00
47338;DHT22;33069;51.970;5.892;2022-07-29T05:56:33;15.50;74.40
47338;DHT22;33069;51.970;5.892;2022-07-29T05:58:59;15.40;74.90
47338;DHT22;33069;51.970;5.892;2022-07-29T06:01:24;15.30;75.30
47338;DHT22;33069;51.970;5.892;2022-07-29T06:03:50;15.50;75.70
47338;DHT22;33069;51.970;5.892;2022-07-29T06:06:16;15.40;75.40
47338;DHT22;33069;51.970;5.892;2022-07-29T06:08:41;15.50;74.90
47338;DHT22;33069;51.970;5.892;2022-07-29T06:11:07;15.50;75.00
47338;DHT22;33069;51.970;5.892;2022-07-29T06:13:34;15.50;74.50
47338;DHT22;33069;51.970;5.892;2022-07-29T06:16:00;15.30;74.70
47338;DHT22;33069;51.970;5.892;2022-07-29T06:18:26;15.60;74.70
47338;DHT22;33069;51.970;5.892;2022-07-29T06:20:52;15.60;74.50
47338;DHT22;33069;51.970;5.892;2022-07-29T06:23:19;15.80;74.20
47338;DHT22;33069;51.970;5.892;2022-07-29T06:25:45;15.80;73.90
47338;DHT22;33069;51.970;5.892;2022-07-29T06:28:11;15.70;73.50
47338;DHT22;33069;51.970;5.892;2022-07-29T06:30:37;15.80;73.30
47338;DHT22;33069;51.970;5.892;2022-07-29T06:33:03;16.00;73.30
47338;DHT22;33069;51.970;5.892;2022-07-29T06:35:29;16.10;72.90
47338;DHT22;33069;51.970;5.892;2022-07-29T06:37:55;16.20;71.80
47338;DHT22;33069;51.970;5.892;2022-07-29T06:40:21;16.40;71.00
47338;DHT22;33069;51.970;5.892;2022-07-29T06:43:05;16.20;71.20
47338;DHT22;33069;51.970;5.892;2022-07-29T06:45:34;16.20;71.40
47338;DHT22;33069;51.970;5.892;2022-07-29T06:48:00;16.00;71.40
47338;DHT22;33069;51.970;5.892;2022-07-29T06:50:25;16.00;72.00
47338;DHT22;33069;51.970;5.892;2022-07-29T06:52:51;16.10;71.20
47338;DHT22;33069;51.970;5.892;2022-07-29T06:55:17;16.00;70.60
47338;DHT22;33069;51.970;5.892;2022-07-29T06:57:45;16.20;71.50
47338;DHT22;33069;51.970;5.892;2022-07-29T07:00:12;16.70;70.70
47338;DHT22;33069;51.970;5.892;2022-07-29T07:02:38;17.00;69.20
47338;DHT22;33069;51.970;5.892;2022-07-29T07:05:04;16.80;68.40
47338;DHT22;33069;51.970;5.892;2022-07-29T07:07:31;17.10;67.70
47338;DHT22;33069;51.970;5.892;2022-07-29T07:09:56;16.80;68.80
47338;DHT22;33069;51.970;5.892;2022-07-29T07:12:22;16.80;69.10
47338;DHT22;33069;51.970;5.892;2022-07-29T07:14:48;17.00;69.80
47338;DHT22;33069;51.970;5.892;2022-07-29T07:17:14;16.90;68.00
47338;DHT22;33069;51.970;5.892;2022-07-29T07:19:40;16.80;68.60
47338;DHT22;33069;51.970;5.892;2022-07-29T07:22:06;16.80;69.40
47338;DHT22;33069;51.970;5.892;2022-07-29T07:24:31;16.80;69.00
47338;DHT22;33069;51.970;5.892;2022-07-29T07:26:57;16.90;68.50
47338;DHT22;33069;51.970;5.892;2022-07-29T07:29:23;17.00;69.40
47338;DHT22;33069;51.970;5.892;2022-07-29T07:31:49;17.20;69.70
47338;DHT22;33069;51.970;5.892;2022-07-29T07:34:14;17.10;69.10
47338;DHT22;33069;51.970;5.892;2022-07-29T07:36:40;16.80;69.60
47338;DHT22;33069;51.970;5.892;2022-07-29T07:39:06;16.70;70.10
47338;DHT22;33069;51.970;5.892;2022-07-29T07:41:32;16.60;70.50
47338;DHT22;33069;51.970;5.892;2022-07-29T07:43:57;16.70;70.30
47338;DHT22;33069;51.970;5.892;2022-07-29T07:46:23;16.70;70.20
47338;DHT22;33069;51.970;5.892;2022-07-29T07:48:49;16.70;70.80
47338;DHT22;33069;51.970;5.892;2022-07-29T07:51:15;16.80;70.90
47338;DHT22;33069;51.970;5.892;2022-07-29T07:53:40;16.70;68.90
47338;DHT22;33069;51.970;5.892;2022-07-29T07:56:06;16.70;69.50
47338;DHT22;33069;51.970;5.892;2022-07-29T07:58:32;16.90;69.80
47338;DHT22;33069;51.970;5.892;2022-07-29T08:00:58;17.10;70.20
47338;DHT22;33069;51.970;5.892;2022-07-29T08:03:24;17.30;69.20
47338;DHT22;33069;51.970;5.892;2022-07-29T08:05:49;17.50;68.70
47338;DHT22;33069;51.970;5.892;2022-07-29T08:08:17;17.50;67.60
47338;DHT22;33069;51.970;5.892;2022-07-29T08:10:43;17.50;66.80
47338;DHT22;33069;51.970;5.892;2022-07-29T08:13:19;17.30;67.80
47338;DHT22;33069;51.970;5.892;2022-07-29T08:15:45;17.60;68.40
47338;DHT22;33069;51.970;5.892;2022-07-29T08:18:12;17.90;67.70
47338;DHT22;33069;51.970;5.892;2022-07-29T08:20:38;18.10;66.80
47338;DHT22;33069;51.970;5.892;2022-07-29T08:23:06;18.00;67.60
47338;DHT22;33069;51.970;5.892;2022-07-29T08:25:35;18.00;66.60
47338;DHT22;33069;51.970;5.892;2022-07-29T08:28:01;17.70;67.60
47338;DHT22;33069;51.970;5.892;2022-07-29T08:30:27;17.60;68.90
47338;DHT22;33069;51.970;5.892;2022-07-29T08:32:53;17.60;68.60
47338;DHT22;33069;51.970;5.892;2022-07-29T08:35:20;17.50;68.90
47338;DHT22;33069;51.970;5.892;2022-07-29T08:37:46;17.60;68.70
47338;DHT22;33069;51.970;5.892;2022-07-29T08:40:12;17.80;68.30
47338;DHT22;33069;51.970;5.892;2022-07-29T08:42:37;18.10;67.50
47338;DHT22;33069;51.970;5.892;2022-07-29T08:45:04;18.00;67.50
47338;DHT22;33069;51.970;5.892;2022-07-29T08:47:30;18.20;67.40
47338;DHT22;33069;51.970;5.892;2022-07-29T08:49:56;18.30;66.80
47338;DHT22;33069;51.970;5.892;2022-07-29T08:52:25;18.40;67.30
47338;DHT22;33069;51.970;5.892;2022-07-29T08:54:52;18.70;67.40
47338;DHT22;33069;51.970;5.892;2022-07-29T08:57:19;18.70;67.50
47338;DHT22;33069;51.970;5.892;2022-07-29T08:59:46;18.90;65.60
47338;DHT22;33069;51.970;5.892;2022-07-29T09:02:21;19.40;65.00
47338;DHT22;33069;51.970;5.892;2022-07-29T09:04:48;19.30;64.10
47338;DHT22;33069;51.970;5.892;2022-07-29T09:07:18;19.10;64.90
47338;DHT22;33069;51.970;5.892;2022-07-29T09:09:44;19.20;66.10
47338;DHT22;33069;51.970;5.892;2022-07-29T09:12:10;19.00;67.50
47338;DHT22;33069;51.970;5.892;2022-07-29T09:14:40;19.10;66.60
47338;DHT22;33069;51.970;5.892;2022-07-29T09:17:06;19.10;66.40
47338;DHT22;33069;51.970;5.892;2022-07-29T09:19:34;19.10;65.30
47338;DHT22;33069;51.970;5.892;2022-07-29T09:22:05;19.10;65.80
47338;DHT22;33069;51.970;5.892;2022-07-29T09:24:45;19.30;65.90
47338;DHT22;33069;51.970;5.892;2022-07-29T09:27:19;19.50;65.10
47338;DHT22;33069;51.970;5.892;2022-07-29T09:29:46;19.30;65.20
47338;DHT22;33069;51.970;5.892;2022-07-29T09:32:12;19.40;65.30
47338;DHT22;33069;51.970;5.892;2022-07-29T09:34:38;19.20;65.60
47338;DHT22;33069;51.970;5.892;2022-07-29T09:37:04;19.00;65.20
47338;DHT22;33069;51.970;5.892;2022-07-29T09:39:36;19.00;65.90
47338;DHT22;33069;51.970;5.892;2022-07-29T09:42:05;19.10;65.30
47338;DHT22;33069;51.970;5.892;2022-07-29T09:44:46;19.30;66.50
47338;DHT22;33069;51.970;5.892;2022-07-29T09:47:14;19.00;67.00
47338;DHT22;33069;51.970;5.892;2022-07-29T09:49:59;19.10;67.20
47338;DHT22;33069;51.970;5.892;2022-07-29T09:52:29;19.50;65.80
47338;DHT22;33069;51.970;5.892;2022-07-29T09:55:09;19.40;66.10
47338;DHT22;33069;51.970;5.892;2022-07-29T09:57:35;19.50;65.60
47338;DHT22;33069;51.970;5.892;2022-07-29T10:00:05;19.70;65.70
47338;DHT22;33069;51.970;5.892;2022-07-29T10:02:33;19.90;65.60
47338;DHT22;33069;51.970;5.892;2022-07-29T10:05:01;20.20;64.20
47338;DHT22;33069;51.970;5.892;2022-07-29T10:07:46;20.30;64.20
47338;DHT22;33069;51.970;5.892;2022-07-29T10:10:28;20.60;62.20
47338;DHT22;33069;51.970;5.892;2022-07-29T10:12:55;21.20;60.50
47338;DHT22;33069;51.970;5.892;2022-07-29T10:15:26;20.90;61.50
47338;DHT22;33069;51.970;5.892;2022-07-29T10:17:53;21.30;60.20
47338;DHT22;33069;51.970;5.892;2022-07-29T10:20:20;21.10;60.60
47338;DHT22;33069;51.970;5.892;2022-07-29T10:22:47;21.00;59.50
47338;DHT22;33069;51.970;5.892;2022-07-29T10:25:15;20.70;62.60
47338;DHT22;33069;51.970;5.892;2022-07-29T10:27:42;21.30;61.00
47338;DHT22;33069;51.970;5.892;2022-07-29T10:30:08;21.10;60.80
47338;DHT22;33069;51.970;5.892;2022-07-29T10:35:40;21.00;60.20
47338;DHT22;33069;51.970;5.892;2022-07-29T10:46:40;21.00;59.90
47338;DHT22;33069;51.970;5.892;2022-07-29T10:49:21;21.80;58.60
47338;DHT22;33069;51.970;5.892;2022-07-29T10:57:20;22.00;59.40
47338;DHT22;33069;51.970;5.892;2022-07-29T10:59:48;22.30;56.40
47338;DHT22;33069;51.970;5.892;2022-07-29T11:05:02;22.70;55.30
47338;DHT22;33069;51.970;5.892;2022-07-29T11:07:29;22.70;55.10
47338;DHT22;33069;51.970;5.892;2022-07-29T11:15:16;22.90;54.00
47338;DHT22;33069;51.970;5.892;2022-07-29T11:26:15;22.60;57.00
47338;DHT22;33069;51.970;5.892;2022-07-29T11:28:56;22.30;56.20
47338;DHT22;33069;51.970;5.892;2022-07-29T11:31:46;22.00;56.50
47338;DHT22;33069;51.970;5.892;2022-07-29T11:40:11;22.60;56.70
47338;DHT22;33069;51.970;5.892;2022-07-29T11:45:21;22.60;55.60
47338;DHT22;33069;51.970;5.892;2022-07-29T11:47:48;22.70;54.50
47338;DHT22;33069;51.970;5.892;2022-07-29T11:50:17;22.90;54.70
47338;DHT22;33069;51.970;5.892;2022-07-29T11:52:51;22.90;55.10
47338;DHT22;33069;51.970;5.892;2022-07-29T11:55:19;22.80;54.80
47338;DHT22;33069;51.970;5.892;2022-07-29T12:02:48;22.70;54.30
47338;DHT22;33069;51.970;5.892;2022-07-29T12:05:13;22.90;55.10
47338;DHT22;33069;51.970;5.892;2022-07-29T12:07:39;23.00;54.40
47338;DHT22;33069;51.970;5.892;2022-07-29T12:10:06;23.10;54.30
47338;DHT22;33069;51.970;5.892;2022-07-29T12:12:33;23.40;53.40
47338;DHT22;33069;51.970;5.892;2022-07-29T12:15:16;23.40;53.60
47338;DHT22;33069;51.970;5.892;2022-07-29T12:17:44;23.60;53.60
47338;DHT22;33069;51.970;5.892;2022-07-29T12:20:10;24.00;54.30
47338;DHT22;33069;51.970;5.892;2022-07-29T12:22:38;24.10;52.40
47338;DHT22;33069;51.970;5.892;2022-07-29T12:27:36;24.00;53.60
47338;DHT22;33069;51.970;5.892;2022-07-29T12:30:09;24.30;52.20
47338;DHT22;33069;51.970;5.892;2022-07-29T12:32:38;24.80;49.70
47338;DHT22;33069;51.970;5.892;2022-07-29T12:35:15;24.80;48.70
47338;DHT22;33069;51.970;5.892;2022-07-29T12:37:43;24.60;50.20
47338;DHT22;33069;51.970;5.892;2022-07-29T12:40:11;24.90;51.10
47338;DHT22;33069;51.970;5.892;2022-07-29T12:42:39;25.00;51.00
47338;DHT22;33069;51.970;5.892;2022-07-29T12:45:05;24.80;50.00
47338;DHT22;33069;51.970;5.892;2022-07-29T12:47:32;24.90;51.10
47338;DHT22;33069;51.970;5.892;2022-07-29T12:50:12;24.70;49.30
47338;DHT22;33069;51.970;5.892;2022-07-29T12:52:41;25.00;47.40
47338;DHT22;33069;51.970;5.892;2022-07-29T12:55:07;25.10;48.10
47338;DHT22;33069;51.970;5.892;2022-07-29T12:57:47;24.90;48.70
47338;DHT22;33069;51.970;5.892;2022-07-29T13:00:14;25.10;49.70
47338;DHT22;33069;51.970;5.892;2022-07-29T13:02:42;24.90;51.20
47338;DHT22;33069;51.970;5.892;2022-07-29T13:05:09;25.00;53.10
47338;DHT22;33069;51.970;5.892;2022-07-29T13:07:36;25.50;49.80
47338;DHT22;33069;51.970;5.892;2022-07-29T13:10:14;25.80;48.70
47338;DHT22;33069;51.970;5.892;2022-07-29T13:15:41;25.80;48.80
47338;DHT22;33069;51.970;5.892;2022-07-29T13:18:29;25.60;50.70
47338;DHT22;33069;51.970;5.892;2022-07-29T13:20:55;25.70;49.60
47338;DHT22;33069;51.970;5.892;2022-07-29T13:23:22;26.20;48.30
47338;DHT22;33069;51.970;5.892;2022-07-29T13:25:47;26.30;46.30
47338;DHT22;33069;51.970;5.892;2022-07-29T13:28:13;26.00;47.70
47338;DHT22;33069;51.970;5.892;2022-07-29T13:30:40;26.00;48.20
47338;DHT22;33069;51.970;5.892;2022-07-29T13:33:06;26.20;47.10
47338;DHT22;33069;51.970;5.892;2022-07-29T13:35:32;26.60;48.00
47338;DHT22;33069;51.970;5.892;2022-07-29T13:37:58;26.70;45.80
47338;DHT22;33069;51.970;5.892;2022-07-29T13:40:23;26.80;47.90
47338;DHT22;33069;51.970;5.892;2022-07-29T13:42:49;26.20;46.10
47338;DHT22;33069;51.970;5.892;2022-07-29T13:45:15;26.10;49.20
47338;DHT22;33069;51.970;5.892;2022-07-29T13:47:41;26.20;48.00
47338;DHT22;33069;51.970;5.892;2022-07-29T13:50:08;26.30;48.70
47338;DHT22;33069;51.970;5.892;2022-07-29T13:52:36;26.50;45.30
47338;DHT22;33069;51.970;5.892;2022-07-29T13:55:03;26.60;44.60
47338;DHT22;33069;51.970;5.892;2022-07-29T13:57:29;26.80;45.00
47338;DHT22;33069;51.970;5.892;2022-07-29T13:59:55;26.80;47.30
47338;DHT22;33069;51.970;5.892;2022-07-29T14:02:21;27.10;48.70
47338;DHT22;33069;51.970;5.892;2022-07-29T14:04:47;27.40;47.00
47338;DHT22;33069;51.970;5.892;2022-07-29T14:07:13;27.70;43.10
47338;DHT22;33069;51.970;5.892;2022-07-29T14:09:38;27.80;46.40
47338;DHT22;33069;51.970;5.892;2022-07-29T14:12:04;27.80;44.00
47338;DHT22;33069;51.970;5.892;2022-07-29T14:14:30;28.40;41.60
47338;DHT22;33069;51.970;5.892;2022-07-29T14:16:58;28.00;41.70
47338;DHT22;33069;51.970;5.892;2022-07-29T14:19:24;28.50;40.50
47338;DHT22;33069;51.970;5.892;2022-07-29T14:21:50;28.30;40.60
47338;DHT22;33069;51.970;5.892;2022-07-29T14:24:15;28.30;40.50
47338;DHT22;33069;51.970;5.892;2022-07-29T14:26:41;27.50;43.50
47338;DHT22;33069;51.970;5.892;2022-07-29T14:29:07;27.50;43.60
47338;DHT22;33069;51.970;5.892;2022-07-29T14:31:33;27.80;41.50
47338;DHT22;33069;51.970;5.892;2022-07-29T14:33:58;27.30;43.70
47338;DHT22;33069;51.970;5.892;2022-07-29T14:36:24;27.10;43.30
47338;DHT22;33069;51.970;5.892;2022-07-29T14:38:50;27.20;44.20
47338;DHT22;33069;51.970;5.892;2022-07-29T14:41:15;27.20;44.70
47338;DHT22;33069;51.970;5.892;2022-07-29T14:43:41;27.50;43.00
47338;DHT22;33069;51.970;5.892;2022-07-29T14:46:07;27.60;42.50
47338;DHT22;33069;51.970;5.892;2022-07-29T14:48:33;27.30;44.10
47338;DHT22;33069;51.970;5.892;2022-07-29T14:50:59;28.30;41.90
47338;DHT22;33069;51.970;5.892;2022-07-29T14:53:25;27.70;43.20
47338;DHT22;33069;51.970;5.892;2022-07-29T14:55:51;27.80;43.80
47338;DHT22;33069;51.970;5.892;2022-07-29T14:58:16;28.30;41.50
47338;DHT22;33069;51.970;5.892;2022-07-29T15:00:42;28.30;43.00
47338;DHT22;33069;51.970;5.892;2022-07-29T15:03:08;28.00;41.80
47338;DHT22;33069;51.970;5.892;2022-07-29T15:05:37;27.40;42.80
47338;DHT22;33069;51.970;5.892;2022-07-29T15:08:03;26.80;44.10
47338;DHT22;33069;51.970;5.892;2022-07-29T15:10:29;27.30;43.00
47338;DHT22;33069;51.970;5.892;2022-07-29T15:12:55;28.00;42.10
47338;DHT22;33069;51.970;5.892;2022-07-29T15:15:21;27.70;41.30
47338;DHT22;33069;51.970;5.892;2022-07-29T15:17:47;26.40;43.50
47338;DHT22;33069;51.970;5.892;2022-07-29T15:20:13;26.70;43.40
47338;DHT22;33069;51.970;5.892;2022-07-29T15:22:39;26.60;43.80
47338;DHT22;33069;51.970;5.892;2022-07-29T15:25:06;26.80;43.10
47338;DHT22;33069;51.970;5.892;2022-07-29T15:27:32;26.30;43.50
47338;DHT22;33069;51.970;5.892;2022-07-29T15:29:58;26.30;44.60
47338;DHT22;33069;51.970;5.892;2022-07-29T15:32:24;26.70;43.30
47338;DHT22;33069;51.970;5.892;2022-07-29T15:34:49;27.10;42.20
47338;DHT22;33069;51.970;5.892;2022-07-29T15:37:16;26.30;45.70
47338;DHT22;33069;51.970;5.892;2022-07-29T15:39:41;26.60;45.60
47338;DHT22;33069;51.970;5.892;2022-07-29T15:42:07;26.70;45.00
47338;DHT22;33069;51.970;5.892;2022-07-29T15:44:33;26.60;45.80
47338;DHT22;33069;51.970;5.892;2022-07-29T15:46:59;26.40;46.20
47338;DHT22;33069;51.970;5.892;2022-07-29T15:49:46;26.10;47.00
47338;DHT22;33069;51.970;5.892;2022-07-29T15:52:12;26.10;47.00
47338;DHT22;33069;51.970;5.892;2022-07-29T15:54:39;25.90;48.10
47338;DHT22;33069;51.970;5.892;2022-07-29T15:57:08;26.20;48.60
47338;DHT22;33069;51.970;5.892;2022-07-29T15:59:33;26.00;49.60
47338;DHT22;33069;51.970;5.892;2022-07-29T16:02:00;25.80;47.80
47338;DHT22;33069;51.970;5.892;2022-07-29T16:04:26;25.60;50.70
47338;DHT22;33069;51.970;5.892;2022-07-29T16:06:52;25.50;48.60
47338;DHT22;33069;51.970;5.892;2022-07-29T16:09:18;25.10;49.20
47338;DHT22;33069;51.970;5.892;2022-07-29T16:11:44;25.00;49.80
47338;DHT22;33069;51.970;5.892;2022-07-29T16:14:11;25.00;50.30
47338;DHT22;33069;51.970;5.892;2022-07-29T16:16:37;25.00;49.50
47338;DHT22;33069;51.970;5.892;2022-07-29T16:19:04;25.00;50.30
47338;DHT22;33069;51.970;5.892;2022-07-29T16:21:30;25.10;49.70
47338;DHT22;33069;51.970;5.892;2022-07-29T16:24:00;24.70;51.50
47338;DHT22;33069;51.970;5.892;2022-07-29T16:26:26;24.50;51.40
47338;DHT22;33069;51.970;5.892;2022-07-29T16:28:52;24.60;50.70
47338;DHT22;33069;51.970;5.892;2022-07-29T16:31:18;24.60;51.70
47338;DHT22;33069;51.970;5.892;2022-07-29T16:33:51;24.50;51.30
47338;DHT22;33069;51.970;5.892;2022-07-29T16:36:17;24.50;52.20
47338;DHT22;33069;51.970;5.892;2022-07-29T16:38:44;24.50;51.60
47338;DHT22;33069;51.970;5.892;2022-07-29T16:41:09;24.40;52.50